createdAt,value
2023-03-16T00:01:06.403Z,24.00
2023-03-16T00:03:58.404Z,21.50
2023-03-16T00:06:50.460Z,23.50
2023-03-16T00:09:43.204Z,19.30
2023-03-16T00:12:35.636Z,18.90
2023-03-16T00:15:27.696Z,13.80
2023-03-16T00:18:04.916Z,14.20
2023-03-16T00:20:58.778Z,13.60
2023-03-16T00:23:50.724Z,14.20
2023-03-16T00:26:42.710Z,16.60
2023-03-16T00:29:34.810Z,19.30
2023-03-16T00:32:28.511Z,22.20
2023-03-16T00:35:21.589Z,19.50
2023-03-16T00:38:13.562Z,18.90
2023-03-16T00:41:07.807Z,19.50
2023-03-16T00:43:59.760Z,17.00
2023-03-16T00:46:51.757Z,17.50
2023-03-16T00:49:45.566Z,16.60
2023-03-16T00:52:37.582Z,13.60
2023-03-16T00:55:29.668Z,17.50
2023-03-16T00:58:23.237Z,14.80
2023-03-16T01:01:17.264Z,14.60
2023-03-16T01:04:09.489Z,14.30
2023-03-16T01:07:02.124Z,15.40
2023-03-16T01:09:54.097Z,19.30
2023-03-16T01:12:46.283Z,17.60
2023-03-16T01:15:26.951Z,19.20
2023-03-16T01:18:20.270Z,17.50
2023-03-16T01:21:13.924Z,14.80
2023-03-16T01:24:06.446Z,20.10
2023-03-16T01:26:58.720Z,19.40
2023-03-16T01:29:50.802Z,20.20
2023-03-16T01:32:43.367Z,14.40
2023-03-16T01:35:35.549Z,16.10
2023-03-16T01:38:27.993Z,15.70
2023-03-16T01:41:19.964Z,17.80
2023-03-16T01:44:16.814Z,15.20
2023-03-16T01:47:09.020Z,13.90
2023-03-16T01:50:01.007Z,15.10
2023-03-16T01:52:53.215Z,14.80
2023-03-16T01:55:45.460Z,13.00
2023-03-16T01:58:38.638Z,14.90
2023-03-16T02:01:30.833Z,16.30
2023-03-16T02:04:37.472Z,15.90
2023-03-16T02:07:34.545Z,17.20
2023-03-16T02:10:29.288Z,18.20
2023-03-16T02:13:21.812Z,17.40
2023-03-16T02:16:19.374Z,15.60
2023-03-16T02:19:18.327Z,22.10
2023-03-16T02:22:11.627Z,15.00
2023-03-16T02:25:03.662Z,15.20
2023-03-16T02:28:04.245Z,19.00
2023-03-16T02:30:56.959Z,17.30
2023-03-16T02:33:51.316Z,15.90
2023-03-16T02:36:46.063Z,14.20
2023-03-16T02:39:38.099Z,18.00
2023-03-16T02:42:31.538Z,17.40
2023-03-16T02:45:25.025Z,16.70
2023-03-16T02:48:22.287Z,17.20
2023-03-16T02:51:14.848Z,16.10
2023-03-16T02:54:06.853Z,16.90
2023-03-16T02:56:58.798Z,17.20
2023-03-16T02:59:51.915Z,20.40
2023-03-16T03:02:43.965Z,19.10
2023-03-16T03:05:36.021Z,20.20
2023-03-16T03:08:28.079Z,20.90
2023-03-16T03:11:20.653Z,19.40
2023-03-16T03:14:13.020Z,19.40
2023-03-16T03:17:05.066Z,17.90
2023-03-16T03:19:57.027Z,18.00
2023-03-16T03:22:52.583Z,18.60
2023-03-16T03:25:45.339Z,17.10
2023-03-16T03:28:37.370Z,17.30
2023-03-16T03:31:29.413Z,16.70
2023-03-16T03:34:21.428Z,18.70
2023-03-16T03:37:13.588Z,20.40
2023-03-16T03:40:06.828Z,19.60
2023-03-16T03:42:47.957Z,21.80
2023-03-16T03:45:40.040Z,19.10
2023-03-16T03:48:32.363Z,21.60
2023-03-16T03:51:24.351Z,23.00
2023-03-16T03:54:16.377Z,20.40
2023-03-16T03:57:08.613Z,26.50
2023-03-16T04:00:00.958Z,19.80
2023-03-16T04:02:53.077Z,24.50
2023-03-16T04:05:45.176Z,22.90
2023-03-16T04:08:37.251Z,19.70
2023-03-16T04:11:29.536Z,24.40
2023-03-16T04:14:21.590Z,22.30
2023-03-16T04:17:13.849Z,23.20
2023-03-16T04:20:11.531Z,23.20
2023-03-16T04:22:58.656Z,24.00
2023-03-16T04:25:50.824Z,27.00
2023-03-16T04:28:43.271Z,19.80
2023-03-16T04:31:35.367Z,18.10
2023-03-16T04:34:27.441Z,16.70
2023-03-16T04:37:19.481Z,17.90
2023-03-16T04:40:20.160Z,18.40
2023-03-16T04:42:54.975Z,17.00
2023-03-16T04:45:47.081Z,19.20
2023-03-16T04:48:39.491Z,22.30
2023-03-16T04:51:32.385Z,19.40
2023-03-16T04:54:24.519Z,18.70
2023-03-16T04:57:19.291Z,23.60
2023-03-16T05:00:18.898Z,23.00
2023-03-16T05:03:11.274Z,18.00
2023-03-16T05:06:03.325Z,20.90
2023-03-16T05:08:55.367Z,23.30
2023-03-16T05:11:47.339Z,27.10
2023-03-16T05:14:39.393Z,28.70
2023-03-16T05:17:31.492Z,27.90
2023-03-16T05:20:24.416Z,29.40
2023-03-16T05:23:16.733Z,26.90
2023-03-16T05:26:09.237Z,29.10
2023-03-16T05:29:01.301Z,28.20
2023-03-16T05:31:54.122Z,25.50
2023-03-16T05:34:46.300Z,31.30
2023-03-16T05:37:38.464Z,25.80
2023-03-16T05:40:30.771Z,30.30
2023-03-16T05:43:23.066Z,27.30
2023-03-16T05:46:15.079Z,29.90
2023-03-16T05:49:07.090Z,26.80
2023-03-16T05:51:59.260Z,26.90
2023-03-16T05:54:51.306Z,24.70
2023-03-16T05:57:44.330Z,27.70
2023-03-16T06:00:25.659Z,30.50
2023-03-16T06:03:18.000Z,29.30
2023-03-16T06:06:10.042Z,28.30
2023-03-16T06:09:02.075Z,30.40
2023-03-16T06:11:54.014Z,33.40
2023-03-16T06:14:45.999Z,34.20
2023-03-16T06:17:39.076Z,33.40
2023-03-16T06:20:31.134Z,33.00
2023-03-16T06:23:23.084Z,31.10
2023-03-16T06:25:59.554Z,36.70
2023-03-16T06:28:52.085Z,42.30
2023-03-16T06:31:44.093Z,41.60
2023-03-16T06:34:38.170Z,68.50
2023-03-16T06:40:21.956Z,52.30
2023-03-16T06:43:16.977Z,53.90
2023-03-16T06:46:09.229Z,31.70
2023-03-16T06:49:01.524Z,34.60
2023-03-16T06:51:39.089Z,38.00
2023-03-16T06:54:32.522Z,36.90
2023-03-16T06:57:24.758Z,39.20
2023-03-16T06:59:56.614Z,44.00
2023-03-16T07:02:48.673Z,33.70
2023-03-16T07:05:42.323Z,34.50
2023-03-16T07:08:35.787Z,60.50
2023-03-16T07:11:32.412Z,38.30
2023-03-16T07:14:26.320Z,37.10
2023-03-16T07:17:19.369Z,40.40
2023-03-16T07:20:13.688Z,58.70
2023-03-16T07:23:09.066Z,44.80
2023-03-16T07:26:01.971Z,32.40
2023-03-16T07:28:57.561Z,28.10
2023-03-16T07:31:50.825Z,27.10
2023-03-16T07:34:54.556Z,24.80
2023-03-16T07:37:47.177Z,28.50
2023-03-16T07:40:40.200Z,25.30
2023-03-16T07:43:33.755Z,24.80
2023-03-16T07:46:26.321Z,22.10
2023-03-16T07:49:02.511Z,25.00
2023-03-16T07:51:54.912Z,23.70
2023-03-16T07:54:48.843Z,28.60
2023-03-16T07:57:42.223Z,27.40
2023-03-16T08:00:37.583Z,23.80
2023-03-16T08:06:25.422Z,17.40
2023-03-16T08:09:17.736Z,18.40
2023-03-16T08:12:12.311Z,19.90
2023-03-16T08:15:05.960Z,19.50
2023-03-16T08:18:07.092Z,20.30
2023-03-16T08:21:04.453Z,21.30
2023-03-16T08:24:00.224Z,21.90
2023-03-16T08:26:52.590Z,20.70
2023-03-16T08:29:45.146Z,22.90
2023-03-16T08:32:39.620Z,23.00
2023-03-16T08:35:38.775Z,21.40
2023-03-16T08:38:32.202Z,19.50
2023-03-16T08:41:24.840Z,18.10
2023-03-16T08:44:19.060Z,20.90
2023-03-16T08:47:14.985Z,22.80
2023-03-16T08:50:12.349Z,21.90
2023-03-16T08:53:15.508Z,16.30
2023-03-16T08:56:11.367Z,16.50
2023-03-16T08:59:27.010Z,16.50
2023-03-16T09:02:11.950Z,13.70
2023-03-16T09:05:05.005Z,11.40
2023-03-16T09:08:01.626Z,11.10
2023-03-16T09:11:01.737Z,13.20
2023-03-16T09:13:55.300Z,11.40
2023-03-16T09:16:50.538Z,10.20
2023-03-16T09:19:52.733Z,8.20
2023-03-16T09:22:46.997Z,8.10
2023-03-16T09:25:39.737Z,8.80
2023-03-16T09:28:14.825Z,7.60
2023-03-16T09:31:08.155Z,6.40
2023-03-16T09:34:01.269Z,5.40
2023-03-16T09:36:55.281Z,5.40
2023-03-16T09:39:37.078Z,8.60
2023-03-16T09:42:37.498Z,7.50
2023-03-16T09:45:36.897Z,6.30
2023-03-16T09:48:31.770Z,7.80
2023-03-16T09:51:38.740Z,5.30
2023-03-16T09:54:39.598Z,6.50
2023-03-16T09:57:35.813Z,6.80
2023-03-16T10:00:38.665Z,6.70
2023-03-16T10:03:41.691Z,11.40
2023-03-16T10:06:21.765Z,5.00
2023-03-16T10:09:26.171Z,4.00
2023-03-16T10:15:17.880Z,5.20
2023-03-16T10:18:16.933Z,5.10
2023-03-16T10:21:16.875Z,8.00
2023-03-16T10:24:34.286Z,6.00
2023-03-16T10:27:31.533Z,6.30
2023-03-16T10:30:28.241Z,8.30
2023-03-16T10:33:27.047Z,5.50
2023-03-16T10:36:30.584Z,4.80
2023-03-16T10:42:04.241Z,5.90
2023-03-16T10:45:03.029Z,3.60
2023-03-16T10:48:06.368Z,4.60
2023-03-16T10:51:02.031Z,4.00
2023-03-16T10:53:57.100Z,4.80
2023-03-16T10:56:50.604Z,4.40
2023-03-16T10:59:53.094Z,5.40
2023-03-16T11:02:45.805Z,3.50
2023-03-16T11:05:41.869Z,3.50
2023-03-16T11:08:38.837Z,4.50
2023-03-16T11:11:17.376Z,5.70
2023-03-16T11:14:15.304Z,6.20
2023-03-16T11:17:16.121Z,3.60
2023-03-16T11:20:17.803Z,6.30
2023-03-16T11:23:16.555Z,2.20
2023-03-16T11:26:22.238Z,3.70
2023-03-16T11:29:21.459Z,3.60
2023-03-16T11:32:20.435Z,5.10
2023-03-16T11:35:20.534Z,4.60
2023-03-16T11:38:19.592Z,4.20
2023-03-16T11:41:21.353Z,3.80
2023-03-16T11:44:23.589Z,2.50
2023-03-16T11:47:39.657Z,2.90
2023-03-16T11:50:44.959Z,2.70
2023-03-16T11:53:41.526Z,5.20
2023-03-16T11:56:40.518Z,2.30
2023-03-16T12:00:03.593Z,3.90
2023-03-16T12:03:13.550Z,6.30
2023-03-16T12:06:24.275Z,4.40
2023-03-16T12:09:48.311Z,5.50
2023-03-16T12:12:54.652Z,4.70
2023-03-16T12:15:49.926Z,3.10
2023-03-16T12:18:49.575Z,6.50
2023-03-16T12:21:46.956Z,5.00
2023-03-16T12:24:45.480Z,3.20
2023-03-16T12:27:41.135Z,5.20
2023-03-16T12:30:44.855Z,5.30
2023-03-16T12:33:49.856Z,4.10
2023-03-16T12:37:03.419Z,4.20
2023-03-16T12:40:11.036Z,6.50
2023-03-16T12:43:31.062Z,3.00
2023-03-16T12:46:32.678Z,3.00
2023-03-16T12:49:28.431Z,4.50
2023-03-16T12:52:22.471Z,3.80
2023-03-16T12:55:18.807Z,5.10
2023-03-16T12:58:12.673Z,3.90
2023-03-16T13:01:12.333Z,4.60
2023-03-16T13:04:03.854Z,4.60
2023-03-16T13:07:07.687Z,4.30
2023-03-16T13:10:03.701Z,5.20
2023-03-16T13:13:08.281Z,3.80
2023-03-16T13:16:10.964Z,3.90
2023-03-16T13:19:24.644Z,4.70
2023-03-16T13:22:29.654Z,2.80
2023-03-16T13:25:38.322Z,3.70
2023-03-16T13:28:34.417Z,3.80
2023-03-16T13:31:34.140Z,3.50
2023-03-16T13:34:30.984Z,7.10
2023-03-16T13:37:25.132Z,4.00
2023-03-16T13:40:24.676Z,4.80
2023-03-16T13:43:23.794Z,5.40
2023-03-16T13:46:19.679Z,4.80
2023-03-16T13:49:15.377Z,7.20
2023-03-16T13:52:13.104Z,7.10
2023-03-16T13:55:15.317Z,4.40
2023-03-16T13:58:23.334Z,6.90
2023-03-16T14:01:24.668Z,5.10
2023-03-16T14:04:19.845Z,4.50
2023-03-16T14:07:20.067Z,4.30
2023-03-16T14:10:17.055Z,6.60
2023-03-16T14:13:25.504Z,7.70
2023-03-16T14:16:02.517Z,4.50
2023-03-16T14:18:59.396Z,5.40
2023-03-16T14:21:51.630Z,6.90
2023-03-16T14:24:45.294Z,5.40
2023-03-16T14:27:47.468Z,7.30
2023-03-16T14:30:39.549Z,6.20
2023-03-16T14:33:33.620Z,6.70
2023-03-16T14:36:46.261Z,6.40
2023-03-16T14:39:40.331Z,3.40
2023-03-16T14:42:33.174Z,5.50
2023-03-16T14:45:27.770Z,7.50
2023-03-16T14:48:23.106Z,5.10
2023-03-16T14:51:16.615Z,3.70
2023-03-16T14:54:14.727Z,2.80
2023-03-16T14:57:08.268Z,3.50
2023-03-16T15:00:00.332Z,4.00
2023-03-16T15:02:59.365Z,5.60
2023-03-16T15:05:53.053Z,5.50
2023-03-16T15:08:47.845Z,4.90
2023-03-16T15:11:43.265Z,3.10
2023-03-16T15:14:52.515Z,4.90
2023-03-16T15:17:45.620Z,5.10
2023-03-16T15:20:41.628Z,4.60
2023-03-16T15:23:33.704Z,3.20
2023-03-16T15:26:27.912Z,4.20
2023-03-16T15:29:20.074Z,2.90
2023-03-16T15:32:16.207Z,4.90
2023-03-16T15:34:48.435Z,6.30
2023-03-16T15:37:40.699Z,6.90
2023-03-16T15:40:33.641Z,4.60
2023-03-16T15:43:28.904Z,5.70
2023-03-16T15:46:13.847Z,6.30
2023-03-16T15:48:54.659Z,5.60
2023-03-16T15:51:46.727Z,8.50
2023-03-16T15:54:39.230Z,6.00
2023-03-16T15:57:15.102Z,5.40
2023-03-16T15:59:47.542Z,7.50
2023-03-16T16:02:39.522Z,10.10
2023-03-16T16:05:32.437Z,27.00
2023-03-16T16:08:24.802Z,24.70
2023-03-16T16:11:20.709Z,27.90
2023-03-16T16:14:16.188Z,25.50
2023-03-16T16:17:15.657Z,61.70
2023-03-16T16:20:23.059Z,47.60
2023-03-16T16:23:15.244Z,33.60
2023-03-16T16:26:26.313Z,44.80
2023-03-16T16:29:22.606Z,36.20
2023-03-16T16:31:57.419Z,32.60
2023-03-16T16:35:03.324Z,20.30
2023-03-16T16:37:56.115Z,17.20
2023-03-16T16:40:48.702Z,23.00
2023-03-16T16:43:33.494Z,38.40
2023-03-16T16:46:28.422Z,44.20
2023-03-16T16:49:22.548Z,41.80
2023-03-16T16:51:59.459Z,45.30
2023-03-16T16:57:43.093Z,36.50
2023-03-16T17:00:35.343Z,31.00
2023-03-16T17:03:29.328Z,28.50
2023-03-16T17:06:01.576Z,28.20
2023-03-16T17:08:40.885Z,25.30
2023-03-16T17:11:34.050Z,21.60
2023-03-16T17:14:28.108Z,26.70
2023-03-16T17:17:16.797Z,26.80
2023-03-16T17:20:19.337Z,31.50
2023-03-16T17:23:26.967Z,31.50
2023-03-16T17:26:23.376Z,29.20
2023-03-16T17:29:22.534Z,36.50
2023-03-16T17:32:16.078Z,32.40
2023-03-16T17:35:16.545Z,37.30
2023-03-16T17:38:19.761Z,45.30
2023-03-16T17:40:56.212Z,47.50
2023-03-16T17:43:48.849Z,61.70
2023-03-16T17:46:37.662Z,61.90
2023-03-16T17:49:30.862Z,60.80
2023-03-16T17:52:25.713Z,44.20
2023-03-16T17:55:20.495Z,53.20
2023-03-16T17:58:25.652Z,61.90
2023-03-16T18:01:18.180Z,45.90
2023-03-16T18:04:18.729Z,47.00
2023-03-16T18:06:54.684Z,43.00
2023-03-16T18:09:47.032Z,39.90
2023-03-16T18:12:39.027Z,38.10
2023-03-16T18:15:33.819Z,33.40
2023-03-16T18:18:21.273Z,30.80
2023-03-16T18:21:20.574Z,30.80
2023-03-16T18:24:17.258Z,31.60
2023-03-16T18:27:10.130Z,29.90
2023-03-16T18:30:02.070Z,26.50
2023-03-16T18:32:39.497Z,27.80
2023-03-16T18:35:19.165Z,27.20
2023-03-16T18:38:20.525Z,34.30
2023-03-16T18:41:18.533Z,32.30
2023-03-16T18:44:22.447Z,27.90
2023-03-16T18:47:19.751Z,31.80
2023-03-16T18:50:19.715Z,30.40
2023-03-16T18:53:16.005Z,27.10
2023-03-16T18:56:13.068Z,30.50
2023-03-16T18:59:05.448Z,30.30
2023-03-16T19:01:57.974Z,34.90
2023-03-16T19:04:50.404Z,40.30
2023-03-16T19:07:45.699Z,42.20
2023-03-16T19:10:42.735Z,45.70
2023-03-16T19:13:21.055Z,50.30
2023-03-16T19:16:19.399Z,44.60
2023-03-16T19:19:12.394Z,50.40
2023-03-16T19:22:09.639Z,50.80
2023-03-16T19:25:02.365Z,53.50
2023-03-16T19:27:55.446Z,54.70
2023-03-16T19:30:48.114Z,45.60
2023-03-16T19:33:42.114Z,46.90
2023-03-16T19:36:34.764Z,53.20
2023-03-16T19:39:27.801Z,44.50
2023-03-16T19:42:23.555Z,48.00
2023-03-16T19:45:18.961Z,48.60
2023-03-16T19:48:01.495Z,47.30
2023-03-16T19:50:53.487Z,52.60
2023-03-16T19:53:46.016Z,51.20
2023-03-16T19:56:26.998Z,56.40
2023-03-16T19:59:20.484Z,68.20
2023-03-16T20:02:26.623Z,64.30
2023-03-16T20:05:23.799Z,67.40
2023-03-16T20:08:15.011Z,68.40
2023-03-16T20:11:09.139Z,69.30
2023-03-16T20:14:02.261Z,61.10
2023-03-16T20:16:54.632Z,68.70
2023-03-16T20:19:26.574Z,73.70
2023-03-16T20:22:21.454Z,71.70
2023-03-16T20:25:13.668Z,66.60
2023-03-16T20:28:13.698Z,70.10
2023-03-16T20:31:07.917Z,70.20
2023-03-16T20:34:00.457Z,69.40
2023-03-16T20:36:52.503Z,80.90
2023-03-16T20:39:45.187Z,78.10
2023-03-16T20:42:38.011Z,77.10
2023-03-16T20:45:31.819Z,93.80
2023-03-16T20:48:25.419Z,90.10
2023-03-16T20:51:13.746Z,102.30
2023-03-16T20:54:05.889Z,86.10
2023-03-16T20:56:49.287Z,95.00
2023-03-16T20:59:41.340Z,88.10
2023-03-16T21:02:35.419Z,84.10
2023-03-16T21:05:27.783Z,91.30
2023-03-16T21:08:20.645Z,101.10
2023-03-16T21:10:59.715Z,89.40
2023-03-16T21:13:51.811Z,96.70
2023-03-16T21:16:26.735Z,99.20
2023-03-16T21:19:21.675Z,115.50
2023-03-16T21:22:24.458Z,105.20
2023-03-16T21:25:25.696Z,107.00
2023-03-16T21:28:19.857Z,124.50
2023-03-16T21:31:18.302Z,123.50
2023-03-16T21:34:23.709Z,124.70
2023-03-16T21:37:17.965Z,129.50
2023-03-16T21:40:19.033Z,127.00
2023-03-16T21:43:12.088Z,136.90
2023-03-16T21:46:04.910Z,135.00
2023-03-16T21:48:57.985Z,139.40
2023-03-16T21:51:32.702Z,138.80
2023-03-16T21:54:25.598Z,123.90
2023-03-16T21:56:59.632Z,135.60
2023-03-16T21:59:51.965Z,138.20
2023-03-16T22:02:29.390Z,146.40
2023-03-16T22:05:38.301Z,142.30
2023-03-16T22:08:32.638Z,135.60
2023-03-16T22:11:28.071Z,138.80
2023-03-16T22:14:20.267Z,138.70
2023-03-16T22:17:22.553Z,143.40
2023-03-16T22:20:20.309Z,141.40
2023-03-16T22:23:28.118Z,148.50
2023-03-16T22:26:23.463Z,152.80
2023-03-16T22:29:23.319Z,153.20
2023-03-16T22:32:19.094Z,141.00
2023-03-16T22:35:31.522Z,160.70
2023-03-16T22:38:23.881Z,163.00
2023-03-16T22:41:18.020Z,157.80
2023-03-16T22:47:07.272Z,145.90
2023-03-16T22:49:59.458Z,158.30
2023-03-16T22:52:53.711Z,152.80
2023-03-16T22:55:45.833Z,159.60
2023-03-16T22:58:40.488Z,164.90
2023-03-16T23:01:35.636Z,163.20
2023-03-16T23:04:32.304Z,174.90
2023-03-16T23:07:24.519Z,163.50
2023-03-16T23:10:19.912Z,161.20
2023-03-16T23:13:16.796Z,171.80
2023-03-16T23:16:20.985Z,177.40
2023-03-16T23:19:25.349Z,167.40
2023-03-16T23:22:18.321Z,180.60
2023-03-16T23:25:11.027Z,183.80
2023-03-16T23:28:04.150Z,195.10
2023-03-16T23:30:56.528Z,206.50
2023-03-16T23:33:49.057Z,189.50
2023-03-16T23:36:41.088Z,204.30
2023-03-16T23:39:33.139Z,201.00
2023-03-16T23:42:25.233Z,194.60
2023-03-16T23:45:29.414Z,185.20
2023-03-16T23:48:23.550Z,177.20
2023-03-16T23:51:22.164Z,176.00
2023-03-16T23:54:18.345Z,166.70
2023-03-16T23:57:11.121Z,167.00
